sensor_id;sensor_type;location;lat;lon;timestamp;P1;durP1;ratioP1;P2;durP2;ratioP2
40541;SDS011;49288;52.194;5.676;2023-05-08T00:03:29;24.40;;;10.88;;
40541;SDS011;49288;52.194;5.676;2023-05-08T00:08:33;18.52;;;10.98;;
40541;SDS011;49288;52.194;5.676;2023-05-08T00:13:35;15.20;;;8.77;;
40541;SDS011;49288;52.194;5.676;2023-05-08T00:18:38;17.33;;;10.32;;
40541;SDS011;49288;52.194;5.676;2023-05-08T00:23:42;16.10;;;10.07;;
40541;SDS011;49288;52.194;5.676;2023-05-08T00:28:46;10.70;;;7.65;;
40541;SDS011;49288;52.194;5.676;2023-05-08T00:33:49;17.77;;;8.52;;
40541;SDS011;49288;52.194;5.676;2023-05-08T00:38:52;17.67;;;10.85;;
40541;SDS011;49288;52.194;5.676;2023-05-08T00:43:55;16.08;;;8.55;;
40541;SDS011;49288;52.194;5.676;2023-05-08T00:48:58;16.52;;;9.75;;
40541;SDS011;49288;52.194;5.676;2023-05-08T00:54:01;17.65;;;9.80;;
40541;SDS011;49288;52.194;5.676;2023-05-08T00:59:08;18.67;;;11.77;;
40541;SDS011;49288;52.194;5.676;2023-05-08T01:04:12;18.60;;;11.15;;
40541;SDS011;49288;52.194;5.676;2023-05-08T01:09:15;24.73;;;14.35;;
40541;SDS011;49288;52.194;5.676;2023-05-08T01:14:19;22.65;;;14.50;;
40541;SDS011;49288;52.194;5.676;2023-05-08T01:19:49;17.95;;;11.35;;
40541;SDS011;49288;52.194;5.676;2023-05-08T01:31:23;14.95;;;9.88;;
40541;SDS011;49288;52.194;5.676;2023-05-08T01:36:05;30.75;;;17.52;;
40541;SDS011;49288;52.194;5.676;2023-05-08T01:41:30;29.60;;;16.63;;
40541;SDS011;49288;52.194;5.676;2023-05-08T01:51:39;21.25;;;11.07;;
40541;SDS011;49288;52.194;5.676;2023-05-08T01:56:46;14.75;;;9.57;;
40541;SDS011;49288;52.194;5.676;2023-05-08T02:01:51;25.45;;;13.88;;
40541;SDS011;49288;52.194;5.676;2023-05-08T02:06:58;27.95;;;15.35;;
40541;SDS011;49288;52.194;5.676;2023-05-08T02:12:03;25.88;;;15.50;;
40541;SDS011;49288;52.194;5.676;2023-05-08T02:17:08;24.45;;;13.63;;
40541;SDS011;49288;52.194;5.676;2023-05-08T02:22:11;29.98;;;16.23;;
40541;SDS011;49288;52.194;5.676;2023-05-08T02:27:14;23.40;;;12.77;;
40541;SDS011;49288;52.194;5.676;2023-05-08T02:32:18;12.38;;;8.18;;
40541;SDS011;49288;52.194;5.676;2023-05-08T02:37:23;18.55;;;11.10;;
40541;SDS011;49288;52.194;5.676;2023-05-08T02:42:27;22.50;;;13.85;;
40541;SDS011;49288;52.194;5.676;2023-05-08T02:47:36;17.98;;;10.45;;
40541;SDS011;49288;52.194;5.676;2023-05-08T02:52:52;13.00;;;8.10;;
40541;SDS011;49288;52.194;5.676;2023-05-08T03:03:25;19.33;;;11.77;;
40541;SDS011;49288;52.194;5.676;2023-05-08T03:08:31;19.00;;;10.25;;
40541;SDS011;49288;52.194;5.676;2023-05-08T03:13:36;17.05;;;9.55;;
40541;SDS011;49288;52.194;5.676;2023-05-08T03:18:44;20.45;;;11.75;;
40541;SDS011;49288;52.194;5.676;2023-05-08T03:23:51;17.92;;;9.95;;
40541;SDS011;49288;52.194;5.676;2023-05-08T03:28:56;31.48;;;15.80;;
40541;SDS011;49288;52.194;5.676;2023-05-08T03:34:04;19.17;;;11.23;;
40541;SDS011;49288;52.194;5.676;2023-05-08T03:39:09;26.25;;;13.07;;
40541;SDS011;49288;52.194;5.676;2023-05-08T03:44:14;32.25;;;17.50;;
40541;SDS011;49288;52.194;5.676;2023-05-08T03:49:19;33.78;;;18.10;;
40541;SDS011;49288;52.194;5.676;2023-05-08T03:54:25;18.48;;;11.02;;
40541;SDS011;49288;52.194;5.676;2023-05-08T03:59:53;26.45;;;13.60;;
40541;SDS011;49288;52.194;5.676;2023-05-08T04:05:01;22.45;;;12.27;;
40541;SDS011;49288;52.194;5.676;2023-05-08T04:10:19;20.15;;;11.73;;
40541;SDS011;49288;52.194;5.676;2023-05-08T04:15:30;24.30;;;13.38;;
40541;SDS011;49288;52.194;5.676;2023-05-08T04:20:36;20.10;;;11.68;;
40541;SDS011;49288;52.194;5.676;2023-05-08T04:25:42;19.20;;;11.43;;
40541;SDS011;49288;52.194;5.676;2023-05-08T04:30:46;19.77;;;11.60;;
40541;SDS011;49288;52.194;5.676;2023-05-08T04:35:50;19.83;;;11.77;;
40541;SDS011;49288;52.194;5.676;2023-05-08T04:40:53;24.65;;;14.20;;
40541;SDS011;49288;52.194;5.676;2023-05-08T04:45:57;17.83;;;11.38;;
40541;SDS011;49288;52.194;5.676;2023-05-08T04:51:00;33.20;;;18.02;;
40541;SDS011;49288;52.194;5.676;2023-05-08T04:56:03;32.30;;;17.42;;
40541;SDS011;49288;52.194;5.676;2023-05-08T05:01:06;43.25;;;22.08;;
40541;SDS011;49288;52.194;5.676;2023-05-08T05:06:10;40.38;;;22.20;;
40541;SDS011;49288;52.194;5.676;2023-05-08T05:11:13;43.15;;;23.52;;
40541;SDS011;49288;52.194;5.676;2023-05-08T05:16:35;40.95;;;22.50;;
40541;SDS011;49288;52.194;5.676;2023-05-08T05:21:39;45.50;;;25.05;;
40541;SDS011;49288;52.194;5.676;2023-05-08T05:26:42;50.40;;;28.13;;
40541;SDS011;49288;52.194;5.676;2023-05-08T05:31:45;64.07;;;34.17;;
40541;SDS011;49288;52.194;5.676;2023-05-08T05:36:48;62.20;;;33.03;;
40541;SDS011;49288;52.194;5.676;2023-05-08T05:41:51;65.55;;;34.58;;
40541;SDS011;49288;52.194;5.676;2023-05-08T05:46:54;75.97;;;37.67;;
40541;SDS011;49288;52.194;5.676;2023-05-08T05:51:59;60.08;;;32.63;;
40541;SDS011;49288;52.194;5.676;2023-05-08T05:57:03;62.03;;;34.35;;
40541;SDS011;49288;52.194;5.676;2023-05-08T06:02:06;74.63;;;36.83;;
40541;SDS011;49288;52.194;5.676;2023-05-08T06:07:12;69.38;;;36.35;;
40541;SDS011;49288;52.194;5.676;2023-05-08T06:12:15;74.10;;;36.45;;
40541;SDS011;49288;52.194;5.676;2023-05-08T06:17:22;75.82;;;37.92;;
40541;SDS011;49288;52.194;5.676;2023-05-08T06:22:26;72.03;;;37.83;;
40541;SDS011;49288;52.194;5.676;2023-05-08T06:27:30;70.05;;;37.05;;
40541;SDS011;49288;52.194;5.676;2023-05-08T06:32:33;69.50;;;37.35;;
40541;SDS011;49288;52.194;5.676;2023-05-08T06:37:35;73.25;;;36.17;;
40541;SDS011;49288;52.194;5.676;2023-05-08T06:42:40;72.03;;;39.22;;
40541;SDS011;49288;52.194;5.676;2023-05-08T06:47:45;79.68;;;40.67;;
40541;SDS011;49288;52.194;5.676;2023-05-08T06:52:49;86.43;;;41.77;;
40541;SDS011;49288;52.194;5.676;2023-05-08T06:57:51;86.15;;;43.20;;
40541;SDS011;49288;52.194;5.676;2023-05-08T07:02:56;74.85;;;41.35;;
40541;SDS011;49288;52.194;5.676;2023-05-08T07:08:00;74.93;;;39.20;;
40541;SDS011;49288;52.194;5.676;2023-05-08T07:13:02;83.90;;;41.60;;
40541;SDS011;49288;52.194;5.676;2023-05-08T07:18:06;64.57;;;36.90;;
40541;SDS011;49288;52.194;5.676;2023-05-08T07:23:09;59.60;;;34.92;;
40541;SDS011;49288;52.194;5.676;2023-05-08T07:28:12;52.70;;;31.67;;
40541;SDS011;49288;52.194;5.676;2023-05-08T07:33:18;54.85;;;34.33;;
40541;SDS011;49288;52.194;5.676;2023-05-08T07:38:23;50.28;;;32.00;;
40541;SDS011;49288;52.194;5.676;2023-05-08T07:43:26;54.47;;;33.03;;
40541;SDS011;49288;52.194;5.676;2023-05-08T07:48:29;54.42;;;30.23;;
40541;SDS011;49288;52.194;5.676;2023-05-08T07:53:32;46.35;;;27.02;;
40541;SDS011;49288;52.194;5.676;2023-05-08T07:58:36;43.37;;;28.60;;
40541;SDS011;49288;52.194;5.676;2023-05-08T08:03:40;45.40;;;28.98;;
40541;SDS011;49288;52.194;5.676;2023-05-08T08:08:43;43.55;;;29.42;;
40541;SDS011;49288;52.194;5.676;2023-05-08T08:13:47;44.67;;;28.52;;
40541;SDS011;49288;52.194;5.676;2023-05-08T08:18:50;40.78;;;27.05;;
40541;SDS011;49288;52.194;5.676;2023-05-08T08:23:54;47.78;;;30.80;;
40541;SDS011;49288;52.194;5.676;2023-05-08T08:28:56;42.47;;;26.20;;
40541;SDS011;49288;52.194;5.676;2023-05-08T08:33:59;46.13;;;30.73;;
40541;SDS011;49288;52.194;5.676;2023-05-08T08:39:03;47.77;;;29.37;;
40541;SDS011;49288;52.194;5.676;2023-05-08T08:44:06;52.07;;;31.53;;
40541;SDS011;49288;52.194;5.676;2023-05-08T08:49:09;39.00;;;27.70;;
40541;SDS011;49288;52.194;5.676;2023-05-08T08:54:16;40.00;;;25.80;;
40541;SDS011;49288;52.194;5.676;2023-05-08T08:59:22;41.92;;;27.80;;
40541;SDS011;49288;52.194;5.676;2023-05-08T09:04:28;42.95;;;28.80;;
40541;SDS011;49288;52.194;5.676;2023-05-08T09:09:33;50.30;;;31.52;;
40541;SDS011;49288;52.194;5.676;2023-05-08T09:14:42;39.33;;;26.23;;
40541;SDS011;49288;52.194;5.676;2023-05-08T09:19:47;48.13;;;33.08;;
40541;SDS011;49288;52.194;5.676;2023-05-08T09:24:57;48.55;;;32.22;;
40541;SDS011;49288;52.194;5.676;2023-05-08T09:30:03;39.92;;;27.35;;
40541;SDS011;49288;52.194;5.676;2023-05-08T09:35:08;54.00;;;33.22;;
40541;SDS011;49288;52.194;5.676;2023-05-08T09:40:13;50.00;;;34.03;;
40541;SDS011;49288;52.194;5.676;2023-05-08T09:45:27;43.40;;;31.35;;
40541;SDS011;49288;52.194;5.676;2023-05-08T09:50:32;43.78;;;32.05;;
40541;SDS011;49288;52.194;5.676;2023-05-08T09:55:45;42.33;;;28.57;;
40541;SDS011;49288;52.194;5.676;2023-05-08T10:00:50;41.05;;;28.33;;
40541;SDS011;49288;52.194;5.676;2023-05-08T10:05:54;53.65;;;36.42;;
40541;SDS011;49288;52.194;5.676;2023-05-08T10:16:18;48.50;;;30.05;;
40541;SDS011;49288;52.194;5.676;2023-05-08T10:21:22;55.90;;;32.88;;
40541;SDS011;49288;52.194;5.676;2023-05-08T10:26:29;46.30;;;31.33;;
40541;SDS011;49288;52.194;5.676;2023-05-08T10:31:34;50.95;;;34.70;;
40541;SDS011;49288;52.194;5.676;2023-05-08T10:36:37;44.63;;;31.75;;
40541;SDS011;49288;52.194;5.676;2023-05-08T10:41:57;51.20;;;34.83;;
40541;SDS011;49288;52.194;5.676;2023-05-08T10:47:13;45.65;;;33.90;;
40541;SDS011;49288;52.194;5.676;2023-05-08T11:03:12;44.30;;;31.13;;
40541;SDS011;49288;52.194;5.676;2023-05-08T11:08:33;38.60;;;27.02;;
40541;SDS011;49288;52.194;5.676;2023-05-08T11:19:25;36.90;;;25.83;;
40541;SDS011;49288;52.194;5.676;2023-05-08T11:24:34;34.42;;;26.42;;
40541;SDS011;49288;52.194;5.676;2023-05-08T11:29:37;36.95;;;28.08;;
40541;SDS011;49288;52.194;5.676;2023-05-08T11:39:44;41.83;;;29.15;;
40541;SDS011;49288;52.194;5.676;2023-05-08T11:44:48;41.58;;;27.15;;
40541;SDS011;49288;52.194;5.676;2023-05-08T11:50:11;43.90;;;29.58;;
40541;SDS011;49288;52.194;5.676;2023-05-08T11:55:14;33.17;;;24.80;;
40541;SDS011;49288;52.194;5.676;2023-05-08T12:00:20;34.65;;;24.42;;
40541;SDS011;49288;52.194;5.676;2023-05-08T12:05:25;35.35;;;25.42;;
40541;SDS011;49288;52.194;5.676;2023-05-08T12:10:29;43.80;;;29.70;;
40541;SDS011;49288;52.194;5.676;2023-05-08T12:15:36;40.53;;;27.73;;
40541;SDS011;49288;52.194;5.676;2023-05-08T12:20:39;50.03;;;34.50;;
40541;SDS011;49288;52.194;5.676;2023-05-08T12:25:43;51.08;;;32.72;;
40541;SDS011;49288;52.194;5.676;2023-05-08T12:30:47;56.15;;;32.63;;
40541;SDS011;49288;52.194;5.676;2023-05-08T12:36:17;44.03;;;27.92;;
40541;SDS011;49288;52.194;5.676;2023-05-08T12:41:46;54.65;;;33.65;;
40541;SDS011;49288;52.194;5.676;2023-05-08T12:52:31;47.08;;;27.45;;
40541;SDS011;49288;52.194;5.676;2023-05-08T13:03:26;53.42;;;30.90;;
40541;SDS011;49288;52.194;5.676;2023-05-08T13:08:31;56.70;;;29.27;;
40541;SDS011;49288;52.194;5.676;2023-05-08T13:13:35;54.60;;;35.13;;
40541;SDS011;49288;52.194;5.676;2023-05-08T13:18:39;52.95;;;31.30;;
40541;SDS011;49288;52.194;5.676;2023-05-08T13:23:42;46.17;;;28.90;;
40541;SDS011;49288;52.194;5.676;2023-05-08T13:28:44;57.20;;;33.90;;
40541;SDS011;49288;52.194;5.676;2023-05-08T13:33:47;51.38;;;32.03;;
40541;SDS011;49288;52.194;5.676;2023-05-08T13:38:50;45.00;;;28.25;;
40541;SDS011;49288;52.194;5.676;2023-05-08T13:43:55;61.13;;;35.70;;
40541;SDS011;49288;52.194;5.676;2023-05-08T13:48:58;54.17;;;30.00;;
40541;SDS011;49288;52.194;5.676;2023-05-08T13:59:04;44.97;;;28.30;;
40541;SDS011;49288;52.194;5.676;2023-05-08T14:09:10;42.88;;;27.52;;
40541;SDS011;49288;52.194;5.676;2023-05-08T14:14:12;51.95;;;32.97;;
40541;SDS011;49288;52.194;5.676;2023-05-08T14:19:16;45.22;;;29.63;;
40541;SDS011;49288;52.194;5.676;2023-05-08T14:24:19;33.13;;;20.13;;
40541;SDS011;49288;52.194;5.676;2023-05-08T14:29:22;33.63;;;21.45;;
40541;SDS011;49288;52.194;5.676;2023-05-08T14:34:26;40.05;;;25.05;;
40541;SDS011;49288;52.194;5.676;2023-05-08T14:39:29;47.28;;;30.35;;
40541;SDS011;49288;52.194;5.676;2023-05-08T14:44:33;40.30;;;26.83;;
40541;SDS011;49288;52.194;5.676;2023-05-08T14:49:36;35.80;;;23.77;;
40541;SDS011;49288;52.194;5.676;2023-05-08T14:54:40;38.17;;;24.58;;
40541;SDS011;49288;52.194;5.676;2023-05-08T14:59:47;32.53;;;22.15;;
40541;SDS011;49288;52.194;5.676;2023-05-08T15:04:59;32.53;;;22.08;;
40541;SDS011;49288;52.194;5.676;2023-05-08T15:15:05;38.55;;;25.20;;
40541;SDS011;49288;52.194;5.676;2023-05-08T15:20:08;38.33;;;26.33;;
40541;SDS011;49288;52.194;5.676;2023-05-08T15:25:11;40.08;;;27.13;;
40541;SDS011;49288;52.194;5.676;2023-05-08T15:30:14;36.90;;;25.05;;
40541;SDS011;49288;52.194;5.676;2023-05-08T15:35:17;39.25;;;27.05;;
40541;SDS011;49288;52.194;5.676;2023-05-08T15:40:20;38.65;;;23.42;;
40541;SDS011;49288;52.194;5.676;2023-05-08T15:45:22;37.22;;;25.48;;
40541;SDS011;49288;52.194;5.676;2023-05-08T15:50:28;49.67;;;31.15;;
40541;SDS011;49288;52.194;5.676;2023-05-08T15:55:30;38.95;;;26.23;;
40541;SDS011;49288;52.194;5.676;2023-05-08T16:00:33;39.92;;;25.98;;
40541;SDS011;49288;52.194;5.676;2023-05-08T16:05:46;42.75;;;26.98;;
40541;SDS011;49288;52.194;5.676;2023-05-08T16:10:49;45.65;;;27.50;;
40541;SDS011;49288;52.194;5.676;2023-05-08T16:15:52;63.38;;;34.45;;
40541;SDS011;49288;52.194;5.676;2023-05-08T16:20:54;40.78;;;24.58;;
40541;SDS011;49288;52.194;5.676;2023-05-08T16:25:57;51.40;;;29.20;;
40541;SDS011;49288;52.194;5.676;2023-05-08T16:31:00;47.10;;;28.65;;
40541;SDS011;49288;52.194;5.676;2023-05-08T16:36:03;45.50;;;25.98;;
40541;SDS011;49288;52.194;5.676;2023-05-08T16:41:06;41.50;;;23.88;;
40541;SDS011;49288;52.194;5.676;2023-05-08T16:46:15;42.60;;;26.00;;
40541;SDS011;49288;52.194;5.676;2023-05-08T16:51:30;40.45;;;24.20;;
40541;SDS011;49288;52.194;5.676;2023-05-08T16:56:33;42.63;;;25.00;;
40541;SDS011;49288;52.194;5.676;2023-05-08T17:01:36;34.95;;;22.17;;
40541;SDS011;49288;52.194;5.676;2023-05-08T17:06:39;41.33;;;25.15;;
40541;SDS011;49288;52.194;5.676;2023-05-08T17:11:42;40.85;;;23.77;;
40541;SDS011;49288;52.194;5.676;2023-05-08T17:16:45;49.83;;;30.15;;
40541;SDS011;49288;52.194;5.676;2023-05-08T17:21:48;46.58;;;26.45;;
40541;SDS011;49288;52.194;5.676;2023-05-08T17:26:51;54.97;;;29.75;;
40541;SDS011;49288;52.194;5.676;2023-05-08T17:31:54;60.85;;;34.28;;
40541;SDS011;49288;52.194;5.676;2023-05-08T17:36:57;63.55;;;33.78;;
40541;SDS011;49288;52.194;5.676;2023-05-08T17:42:00;87.22;;;41.60;;
40541;SDS011;49288;52.194;5.676;2023-05-08T17:47:03;63.83;;;29.45;;
40541;SDS011;49288;52.194;5.676;2023-05-08T17:52:06;79.15;;;34.08;;
40541;SDS011;49288;52.194;5.676;2023-05-08T17:57:08;97.00;;;41.77;;
40541;SDS011;49288;52.194;5.676;2023-05-08T18:02:11;70.00;;;33.27;;
40541;SDS011;49288;52.194;5.676;2023-05-08T18:07:14;79.53;;;35.63;;
40541;SDS011;49288;52.194;5.676;2023-05-08T18:12:17;70.10;;;34.47;;
40541;SDS011;49288;52.194;5.676;2023-05-08T18:17:20;69.20;;;32.47;;
40541;SDS011;49288;52.194;5.676;2023-05-08T18:32:29;76.47;;;33.90;;
40541;SDS011;49288;52.194;5.676;2023-05-08T18:37:32;54.33;;;25.42;;
40541;SDS011;49288;52.194;5.676;2023-05-08T18:42:35;67.13;;;28.52;;
40541;SDS011;49288;52.194;5.676;2023-05-08T18:47:37;63.38;;;28.20;;
40541;SDS011;49288;52.194;5.676;2023-05-08T18:52:59;70.88;;;32.33;;
40541;SDS011;49288;52.194;5.676;2023-05-08T18:58:02;68.10;;;28.87;;
40541;SDS011;49288;52.194;5.676;2023-05-08T19:03:07;66.38;;;28.60;;
40541;SDS011;49288;52.194;5.676;2023-05-08T19:08:09;71.40;;;31.45;;
40541;SDS011;49288;52.194;5.676;2023-05-08T19:13:14;79.63;;;32.05;;
40541;SDS011;49288;52.194;5.676;2023-05-08T19:18:17;83.57;;;34.00;;
40541;SDS011;49288;52.194;5.676;2023-05-08T19:23:20;77.77;;;31.80;;
40541;SDS011;49288;52.194;5.676;2023-05-08T19:28:23;87.38;;;35.47;;
40541;SDS011;49288;52.194;5.676;2023-05-08T19:33:25;83.22;;;33.80;;
40541;SDS011;49288;52.194;5.676;2023-05-08T19:38:28;69.13;;;28.63;;
40541;SDS011;49288;52.194;5.676;2023-05-08T19:43:31;67.72;;;27.90;;
40541;SDS011;49288;52.194;5.676;2023-05-08T19:53:39;71.53;;;28.92;;
40541;SDS011;49288;52.194;5.676;2023-05-08T19:58:42;70.70;;;28.83;;
40541;SDS011;49288;52.194;5.676;2023-05-08T20:03:45;85.97;;;32.80;;
40541;SDS011;49288;52.194;5.676;2023-05-08T20:08:48;67.93;;;28.20;;
40541;SDS011;49288;52.194;5.676;2023-05-08T20:13:50;72.25;;;29.63;;
40541;SDS011;49288;52.194;5.676;2023-05-08T20:18:56;72.00;;;27.75;;
40541;SDS011;49288;52.194;5.676;2023-05-08T20:24:01;74.05;;;28.90;;
40541;SDS011;49288;52.194;5.676;2023-05-08T20:29:04;68.72;;;29.17;;
40541;SDS011;49288;52.194;5.676;2023-05-08T20:34:09;63.90;;;27.45;;
40541;SDS011;49288;52.194;5.676;2023-05-08T20:39:12;70.47;;;31.05;;
40541;SDS011;49288;52.194;5.676;2023-05-08T20:44:16;83.47;;;32.05;;
40541;SDS011;49288;52.194;5.676;2023-05-08T20:49:20;74.57;;;29.20;;
40541;SDS011;49288;52.194;5.676;2023-05-08T20:54:23;73.57;;;28.95;;
40541;SDS011;49288;52.194;5.676;2023-05-08T20:59:26;76.63;;;31.67;;
40541;SDS011;49288;52.194;5.676;2023-05-08T21:04:28;69.25;;;29.13;;
40541;SDS011;49288;52.194;5.676;2023-05-08T21:09:32;75.03;;;29.83;;
40541;SDS011;49288;52.194;5.676;2023-05-08T21:14:35;78.88;;;31.50;;
40541;SDS011;49288;52.194;5.676;2023-05-08T21:19:38;94.20;;;34.00;;
40541;SDS011;49288;52.194;5.676;2023-05-08T21:24:41;76.68;;;29.17;;
40541;SDS011;49288;52.194;5.676;2023-05-08T21:29:45;76.28;;;30.33;;
40541;SDS011;49288;52.194;5.676;2023-05-08T21:34:48;87.88;;;32.50;;
40541;SDS011;49288;52.194;5.676;2023-05-08T21:39:51;76.05;;;30.38;;
40541;SDS011;49288;52.194;5.676;2023-05-08T21:44:54;92.95;;;34.88;;
40541;SDS011;49288;52.194;5.676;2023-05-08T21:49:56;72.75;;;28.98;;
40541;SDS011;49288;52.194;5.676;2023-05-08T21:54:59;73.78;;;28.63;;
40541;SDS011;49288;52.194;5.676;2023-05-08T22:00:03;73.60;;;28.48;;
40541;SDS011;49288;52.194;5.676;2023-05-08T22:05:08;87.38;;;32.90;;
40541;SDS011;49288;52.194;5.676;2023-05-08T22:10:10;76.32;;;30.20;;
40541;SDS011;49288;52.194;5.676;2023-05-08T22:15:14;80.43;;;31.73;;
40541;SDS011;49288;52.194;5.676;2023-05-08T22:20:31;83.55;;;31.42;;
40541;SDS011;49288;52.194;5.676;2023-05-08T22:25:34;75.17;;;29.53;;
40541;SDS011;49288;52.194;5.676;2023-05-08T22:30:37;84.60;;;30.35;;
40541;SDS011;49288;52.194;5.676;2023-05-08T22:35:40;84.60;;;32.65;;
40541;SDS011;49288;52.194;5.676;2023-05-08T22:40:43;67.75;;;25.35;;
40541;SDS011;49288;52.194;5.676;2023-05-08T22:45:45;65.70;;;25.92;;
40541;SDS011;49288;52.194;5.676;2023-05-08T22:50:49;81.57;;;30.27;;
40541;SDS011;49288;52.194;5.676;2023-05-08T22:55:52;75.55;;;28.60;;
40541;SDS011;49288;52.194;5.676;2023-05-08T23:00:55;82.63;;;28.58;;
40541;SDS011;49288;52.194;5.676;2023-05-08T23:11:01;108.28;;;38.08;;
40541;SDS011;49288;52.194;5.676;2023-05-08T23:16:05;78.15;;;30.05;;
40541;SDS011;49288;52.194;5.676;2023-05-08T23:21:08;94.80;;;35.05;;
40541;SDS011;49288;52.194;5.676;2023-05-08T23:26:11;70.22;;;26.98;;
40541;SDS011;49288;52.194;5.676;2023-05-08T23:31:15;75.75;;;28.95;;
40541;SDS011;49288;52.194;5.676;2023-05-08T23:36:18;72.50;;;27.75;;
40541;SDS011;49288;52.194;5.676;2023-05-08T23:41:21;76.53;;;28.23;;
40541;SDS011;49288;52.194;5.676;2023-05-08T23:46:25;76.10;;;28.53;;
40541;SDS011;49288;52.194;5.676;2023-05-08T23:51:27;81.80;;;30.33;;
40541;SDS011;49288;52.194;5.676;2023-05-08T23:56:31;100.38;;;34.30;;
